createdAt,value
2022-11-12T00:00:19.282Z,100528.31
2022-11-12T00:05:22.429Z,100527.56
2022-11-12T00:10:25.633Z,100517.03
2022-11-12T00:15:30.239Z,100524.25
2022-11-12T00:20:33.406Z,100529.75
2022-11-12T00:25:36.550Z,100528.00
2022-11-12T00:30:42.198Z,100509.69
2022-11-12T00:35:45.345Z,100520.31
2022-11-12T00:40:48.474Z,100520.25
2022-11-12T00:45:53.062Z,100511.38
2022-11-12T00:51:01.464Z,100507.03
2022-11-12T00:56:06.780Z,100506.19
2022-11-12T01:01:14.711Z,100510.44
2022-11-12T01:06:20.398Z,100504.50
2022-11-12T01:11:25.606Z,100510.59
2022-11-12T01:16:33.348Z,100515.81
2022-11-12T01:21:40.202Z,100515.94
2022-11-12T01:26:43.588Z,100516.78
2022-11-12T01:31:48.258Z,100507.06
2022-11-12T01:36:51.544Z,100505.34
2022-11-12T01:41:54.902Z,100500.88
2022-11-12T01:47:04.385Z,100487.78
2022-11-12T01:52:14.819Z,100485.41
2022-11-12T01:57:23.333Z,100484.56
2022-11-12T02:02:28.600Z,100481.88
2022-11-12T02:07:34.025Z,100485.78
2022-11-12T02:12:51.588Z,100499.00
2022-11-12T02:17:56.306Z,100494.59
2022-11-12T02:23:01.008Z,100495.19
2022-11-12T02:28:07.819Z,100489.53
2022-11-12T02:33:11.080Z,100484.72
2022-11-12T02:38:15.748Z,100484.97
2022-11-12T02:43:18.981Z,100477.88
2022-11-12T02:48:22.197Z,100492.97
2022-11-12T02:53:27.252Z,100488.63
2022-11-12T02:58:30.902Z,100483.38
2022-11-12T03:03:34.150Z,100481.56
2022-11-12T03:08:38.798Z,100470.28
2022-11-12T03:13:42.239Z,100479.41
2022-11-12T03:18:45.541Z,100465.59
2022-11-12T03:23:50.163Z,100471.41
2022-11-12T03:28:53.538Z,100465.09
2022-11-12T03:33:56.903Z,100457.16
2022-11-12T03:39:01.595Z,100465.19
2022-11-12T03:44:05.071Z,100463.59
2022-11-12T03:49:08.391Z,100448.06
2022-11-12T03:54:12.981Z,100456.94
2022-11-12T03:59:16.146Z,100462.19
2022-11-12T04:04:19.421Z,100453.63
2022-11-12T04:09:24.126Z,100460.78
2022-11-12T04:14:27.444Z,100460.69
2022-11-12T04:19:48.141Z,100471.16
2022-11-12T04:25:10.453Z,100461.78
2022-11-12T04:30:20.225Z,100476.72
2022-11-12T04:35:25.590Z,100464.59
2022-11-12T04:40:47.312Z,100467.22
2022-11-12T04:45:53.274Z,100471.56
2022-11-12T04:51:00.418Z,100476.72
2022-11-12T04:56:05.492Z,100473.16
2022-11-12T05:01:08.869Z,100483.53
2022-11-12T05:06:25.971Z,100479.91
2022-11-12T05:11:30.682Z,100478.91
2022-11-12T05:16:33.969Z,100474.47
2022-11-12T05:21:54.553Z,100478.00
2022-11-12T05:26:59.128Z,100483.34
2022-11-12T05:32:03.022Z,100476.53
2022-11-12T05:37:08.269Z,100488.88
2022-11-12T05:42:14.051Z,100488.97
2022-11-12T05:47:18.040Z,100482.09
2022-11-12T05:52:21.179Z,100488.13
2022-11-12T05:57:28.523Z,100483.84
2022-11-12T06:02:31.785Z,100492.59
2022-11-12T06:07:35.074Z,100494.41
2022-11-12T06:12:39.727Z,100490.91
2022-11-12T06:17:43.685Z,100485.66
2022-11-12T06:22:46.867Z,100489.28
2022-11-12T06:27:51.584Z,100494.59
2022-11-12T06:32:54.989Z,100503.56
2022-11-12T06:37:58.233Z,100502.72
2022-11-12T06:43:02.886Z,100503.78
2022-11-12T06:48:06.172Z,100501.28
2022-11-12T06:53:09.567Z,100488.06
2022-11-12T06:58:14.173Z,100485.63
2022-11-12T07:03:17.449Z,100480.44
2022-11-12T07:08:20.697Z,100477.81
2022-11-12T07:13:26.283Z,100489.16
2022-11-12T07:18:30.295Z,100483.94
2022-11-12T07:23:35.536Z,100488.41
2022-11-12T07:28:40.138Z,100495.34
2022-11-12T07:33:44.512Z,100490.91
2022-11-12T07:38:48.167Z,100505.81
2022-11-12T07:43:54.977Z,100504.66
2022-11-12T07:48:58.173Z,100502.91
2022-11-12T07:54:01.491Z,100511.56
2022-11-12T07:59:06.227Z,100505.38
2022-11-12T08:04:10.989Z,100512.34
2022-11-12T08:09:14.217Z,100513.75
2022-11-12T08:14:18.929Z,100513.47
2022-11-12T08:19:22.253Z,100510.31
2022-11-12T08:24:25.463Z,100513.19
2022-11-12T08:29:30.170Z,100517.19
2022-11-12T08:34:33.457Z,100510.78
2022-11-12T08:39:36.729Z,100515.66
2022-11-12T08:44:41.354Z,100512.72
2022-11-12T08:49:47.954Z,100517.63
2022-11-12T08:54:51.580Z,100520.72
2022-11-12T08:59:56.244Z,100517.78
2022-11-12T09:04:59.547Z,100510.44
2022-11-12T09:10:02.853Z,100513.69
2022-11-12T09:20:32.988Z,100521.03
2022-11-12T09:25:36.735Z,100521.78
2022-11-12T09:30:46.721Z,100505.03
2022-11-12T09:35:50.882Z,100511.88
2022-11-12T09:41:12.046Z,100512.69
2022-11-12T09:46:37.810Z,100508.22
2022-11-12T09:51:44.904Z,100509.81
2022-11-12T09:56:49.634Z,100503.47
2022-11-12T10:02:02.041Z,100497.97
2022-11-12T10:07:12.767Z,100494.13
2022-11-12T10:12:34.671Z,100496.53
2022-11-12T10:17:47.748Z,100501.66
2022-11-12T10:23:07.767Z,100499.19
2022-11-12T10:28:24.373Z,100486.88
2022-11-12T10:33:33.116Z,100481.91
2022-11-12T10:38:37.966Z,100479.22
2022-11-12T10:43:53.981Z,100481.72
2022-11-12T10:49:03.735Z,100481.56
2022-11-12T10:54:32.995Z,100482.81
2022-11-12T11:00:12.497Z,100467.78
2022-11-12T11:05:52.814Z,100465.50
2022-11-12T11:11:25.839Z,100468.31
2022-11-12T11:16:32.390Z,100460.41
2022-11-12T11:22:06.709Z,100459.41
2022-11-12T11:27:18.386Z,100453.84
2022-11-12T11:32:37.368Z,100446.25
2022-11-12T11:38:10.420Z,100442.16
2022-11-12T11:51:22.135Z,100428.28
2022-11-12T12:02:10.804Z,100418.38
2022-11-12T12:13:41.709Z,100398.41
2022-11-12T12:19:16.656Z,100391.47
2022-11-12T12:24:38.595Z,100388.69
2022-11-12T12:37:59.787Z,100377.56
2022-11-12T12:41:47.994Z,100361.97
2022-11-12T12:47:27.884Z,100352.28
2022-11-12T12:57:41.200Z,100329.97
2022-11-12T13:02:45.134Z,100332.94
2022-11-12T13:07:50.672Z,100317.41
2022-11-12T13:13:06.030Z,100312.72
2022-11-12T13:18:14.361Z,100318.88
2022-11-12T13:24:05.951Z,100314.91
2022-11-12T13:29:41.187Z,100306.53
2022-11-12T13:34:44.836Z,100298.41
2022-11-12T13:39:48.544Z,100296.72
2022-11-12T13:44:56.097Z,100293.44
2022-11-12T13:50:02.734Z,100283.25
2022-11-12T13:55:08.307Z,100270.13
2022-11-12T14:00:25.352Z,100266.34
2022-11-12T14:05:31.134Z,100259.72
2022-11-12T14:10:46.116Z,100250.69
2022-11-12T14:16:09.558Z,100254.28
2022-11-12T14:21:17.081Z,100232.97
2022-11-12T14:26:36.958Z,100229.53
2022-11-12T14:31:41.609Z,100220.19
2022-11-12T14:36:47.553Z,100213.94
2022-11-12T14:41:51.158Z,100207.78
2022-11-12T14:46:56.995Z,100200.53
2022-11-12T14:52:08.922Z,100201.16
2022-11-12T14:57:19.686Z,100191.88
2022-11-12T15:02:37.672Z,100189.38
2022-11-12T15:07:57.156Z,100192.91
2022-11-12T15:13:06.742Z,100182.03
2022-11-12T15:18:18.870Z,100180.34
2022-11-12T15:23:22.078Z,100177.28
2022-11-12T15:28:27.443Z,100170.88
2022-11-12T15:33:32.009Z,100182.47
2022-11-12T15:38:37.987Z,100174.28
2022-11-12T15:43:43.548Z,100185.34
2022-11-12T15:48:52.793Z,100184.50
2022-11-12T15:53:58.890Z,100182.25
2022-11-12T15:59:02.361Z,100179.03
2022-11-12T16:04:07.028Z,100175.94
2022-11-12T16:09:10.181Z,100170.84
2022-11-12T16:14:15.834Z,100181.13
2022-11-12T16:19:20.494Z,100179.28
2022-11-12T16:24:23.634Z,100175.09
2022-11-12T16:29:26.816Z,100179.22
2022-11-12T16:34:31.462Z,100176.63
2022-11-12T16:39:35.119Z,100175.47
2022-11-12T16:44:38.296Z,100178.69
2022-11-12T16:49:43.457Z,100175.66
2022-11-12T16:54:46.608Z,100174.44
2022-11-12T16:59:49.740Z,100183.13
2022-11-12T17:04:54.295Z,100193.47
2022-11-12T17:09:57.294Z,100199.50
2022-11-12T17:15:00.521Z,100204.16
2022-11-12T17:20:05.787Z,100216.44
2022-11-12T17:25:10.124Z,100220.09
2022-11-12T17:30:14.354Z,100218.97
2022-11-12T17:35:18.923Z,100231.00
2022-11-12T17:40:22.173Z,100242.97
2022-11-12T17:45:25.349Z,100247.22
2022-11-12T17:50:29.931Z,100260.47
2022-11-12T17:55:33.447Z,100263.72
2022-11-12T18:00:38.161Z,100267.75
2022-11-12T18:05:42.448Z,100265.16
2022-11-12T18:10:45.874Z,100276.72
2022-11-12T18:15:49.143Z,100270.81
2022-11-12T18:20:53.801Z,100280.97
2022-11-12T18:25:57.059Z,100280.56
2022-11-12T18:31:01.853Z,100286.16
2022-11-12T18:36:07.197Z,100280.69
2022-11-12T18:41:12.391Z,100286.06
2022-11-12T18:46:15.635Z,100294.09
2022-11-12T18:51:21.261Z,100298.03
2022-11-12T18:56:24.414Z,100302.09
2022-11-12T19:01:27.654Z,100300.56
2022-11-12T19:06:32.240Z,100297.94
2022-11-12T19:11:35.466Z,100302.47
2022-11-12T19:16:42.461Z,100301.84
2022-11-12T19:21:49.047Z,100298.47
2022-11-12T19:26:52.235Z,100308.28
2022-11-12T19:31:55.543Z,100319.94
2022-11-12T19:37:26.866Z,100311.41
2022-11-12T19:42:23.454Z,100320.28
2022-11-12T19:47:26.641Z,100323.00
2022-11-12T19:52:31.250Z,100325.75
2022-11-12T19:57:34.553Z,100318.94
2022-11-12T20:02:37.696Z,100316.66
2022-11-12T20:07:42.260Z,100323.88
2022-11-12T20:12:45.777Z,100322.56
2022-11-12T20:17:48.982Z,100324.13
2022-11-12T20:22:53.561Z,100326.78
2022-11-12T20:27:56.743Z,100324.13
2022-11-12T20:32:59.874Z,100323.97
2022-11-12T20:38:04.677Z,100317.94
2022-11-12T20:43:07.554Z,100319.56
2022-11-12T20:48:10.690Z,100329.56
2022-11-12T20:53:15.259Z,100320.50
2022-11-12T20:58:18.396Z,100327.81
2022-11-12T21:03:22.076Z,100332.09
2022-11-12T21:08:26.970Z,100324.41
2022-11-12T21:13:30.341Z,100332.09
2022-11-12T21:18:34.817Z,100340.75
2022-11-12T21:23:41.053Z,100346.44
2022-11-12T21:28:45.035Z,100350.25
2022-11-12T21:33:50.722Z,100357.47
2022-11-12T21:38:55.569Z,100352.34
2022-11-12T21:43:58.468Z,100352.72
2022-11-12T21:49:01.598Z,100351.75
2022-11-12T21:54:07.565Z,100349.16
2022-11-12T21:59:10.732Z,100353.47
2022-11-12T22:04:18.160Z,100346.25
2022-11-12T22:09:23.055Z,100346.25
2022-11-12T22:14:26.301Z,100337.53
2022-11-12T22:19:29.448Z,100340.25
2022-11-12T22:24:34.720Z,100337.88
2022-11-12T22:29:37.921Z,100342.34
2022-11-12T22:34:43.758Z,100341.03
2022-11-12T22:39:50.354Z,100354.84
2022-11-12T22:44:53.521Z,100351.88
2022-11-12T22:49:56.650Z,100359.75
2022-11-12T22:55:01.198Z,100353.63
2022-11-12T23:00:09.621Z,100354.13
2022-11-12T23:05:12.748Z,100348.88
2022-11-12T23:10:17.491Z,100351.63
2022-11-12T23:15:20.625Z,100345.75
2022-11-12T23:20:24.159Z,100355.53
2022-11-12T23:25:28.717Z,100358.31
2022-11-12T23:30:31.867Z,100355.88
2022-11-12T23:35:35.027Z,100353.47
2022-11-12T23:40:39.599Z,100350.84
2022-11-12T23:45:43.470Z,100353.34
2022-11-12T23:50:47.837Z,100344.34
2022-11-12T23:55:52.501Z,100343.44
